createdAt,value
2017-06-13T00:00:39.156Z,0
2017-06-13T00:01:47.245Z,0
2017-06-13T00:02:55.335Z,0
2017-06-13T00:04:03.419Z,0
2017-06-13T00:05:11.529Z,0
2017-06-13T00:06:19.589Z,0
2017-06-13T00:07:27.675Z,0
2017-06-13T00:08:35.764Z,0
2017-06-13T00:09:43.859Z,0
2017-06-13T00:10:51.939Z,0
2017-06-13T00:12:00.025Z,0
2017-06-13T00:13:08.113Z,0
2017-06-13T00:14:16.199Z,0
2017-06-13T00:15:24.294Z,0
2017-06-13T00:16:32.396Z,0
2017-06-13T00:17:40.466Z,0
2017-06-13T00:18:48.553Z,0
2017-06-13T00:19:56.638Z,0
2017-06-13T00:21:04.727Z,0
2017-06-13T00:22:12.816Z,0
2017-06-13T00:23:20.901Z,0
2017-06-13T00:24:28.988Z,0
2017-06-13T00:25:37.161Z,0
2017-06-13T00:26:45.166Z,0
2017-06-13T00:27:53.250Z,0
2017-06-13T00:29:01.336Z,0
2017-06-13T00:30:09.422Z,0
2017-06-13T00:31:17.515Z,0
2017-06-13T00:32:25.597Z,0
2017-06-13T00:33:33.685Z,0
2017-06-13T00:34:41.858Z,0
2017-06-13T00:35:49.869Z,0
2017-06-13T00:36:57.945Z,0
2017-06-13T00:38:06.059Z,0
2017-06-13T00:39:14.122Z,0
2017-06-13T00:40:22.207Z,0
2017-06-13T00:41:30.305Z,0
2017-06-13T00:42:38.439Z,0
2017-06-13T00:43:46.469Z,0
2017-06-13T00:44:54.556Z,0
2017-06-13T00:46:02.656Z,0
2017-06-13T00:47:10.729Z,0
2017-06-13T00:48:18.817Z,0
2017-06-13T00:49:26.904Z,0
2017-06-13T00:50:34.992Z,0
2017-06-13T00:51:43.078Z,0
2017-06-13T00:52:51.170Z,0
2017-06-13T00:53:59.250Z,0
2017-06-13T00:55:07.338Z,0
2017-06-13T00:56:15.426Z,0
2017-06-13T00:57:23.513Z,0
2017-06-13T00:58:31.600Z,0
2017-06-13T00:59:39.687Z,0
2017-06-13T01:00:47.776Z,0
2017-06-13T01:01:55.862Z,0
2017-06-13T01:03:03.947Z,0
2017-06-13T01:04:12.044Z,0
2017-06-13T01:05:20.119Z,0
2017-06-13T01:06:28.207Z,0
2017-06-13T01:07:36.294Z,0
2017-06-13T01:08:44.408Z,0
2017-06-13T01:09:52.469Z,0
2017-06-13T01:11:00.557Z,0
2017-06-13T01:12:08.643Z,0
2017-06-13T01:13:16.729Z,0
2017-06-13T01:14:24.816Z,0
2017-06-13T01:15:32.900Z,0
2017-06-13T01:16:41.029Z,0
2017-06-13T01:17:49.081Z,0
2017-06-13T01:18:57.167Z,0
2017-06-13T01:20:05.253Z,0
2017-06-13T01:21:13.350Z,0
2017-06-13T01:22:21.427Z,0
2017-06-13T01:23:29.528Z,0
2017-06-13T01:24:37.600Z,0
2017-06-13T01:25:45.688Z,0
2017-06-13T01:26:53.774Z,0
2017-06-13T01:28:01.861Z,0
2017-06-13T01:29:09.952Z,0
2017-06-13T01:30:18.034Z,0
2017-06-13T01:31:26.123Z,0
2017-06-13T01:32:34.210Z,0
2017-06-13T01:33:42.298Z,0
2017-06-13T01:34:50.391Z,0
2017-06-13T01:35:58.470Z,0
2017-06-13T01:37:06.556Z,0
2017-06-13T01:38:14.647Z,0
2017-06-13T01:39:22.732Z,0
2017-06-13T01:40:30.819Z,0
2017-06-13T01:41:38.905Z,0
2017-06-13T01:42:46.990Z,0
2017-06-13T01:43:55.078Z,0
2017-06-13T01:45:03.166Z,0
2017-06-13T01:46:11.252Z,0
2017-06-13T01:47:19.339Z,0
2017-06-13T01:48:27.426Z,0
2017-06-13T01:49:35.512Z,0
2017-06-13T01:50:43.600Z,0
2017-06-13T01:51:51.686Z,0
2017-06-13T01:52:59.772Z,0
2017-06-13T01:54:07.858Z,0
2017-06-13T01:55:15.944Z,0
2017-06-13T01:56:24.030Z,0
2017-06-13T01:57:32.119Z,0
2017-06-13T01:58:40.206Z,0
2017-06-13T01:59:48.329Z,0
2017-06-13T02:00:56.381Z,0
2017-06-13T02:02:04.466Z,0
2017-06-13T02:03:12.551Z,0
2017-06-13T02:04:20.639Z,0
2017-06-13T02:05:28.737Z,0
2017-06-13T02:06:36.818Z,0
2017-06-13T02:07:44.923Z,0
2017-06-13T02:08:52.991Z,0
2017-06-13T02:10:01.079Z,0
2017-06-13T02:11:09.166Z,0
2017-06-13T02:12:17.249Z,0
2017-06-13T02:13:25.338Z,0
2017-06-13T02:14:33.424Z,0
2017-06-13T02:15:41.511Z,0
2017-06-13T02:16:49.599Z,0
2017-06-13T02:17:57.684Z,0
2017-06-13T02:19:05.771Z,0
2017-06-13T02:20:13.855Z,0
2017-06-13T02:21:21.940Z,0
2017-06-13T02:22:30.029Z,0
2017-06-13T02:23:38.114Z,0
2017-06-13T02:24:46.300Z,0
2017-06-13T02:25:54.288Z,0
2017-06-13T02:27:02.375Z,0
2017-06-13T02:28:10.462Z,0
2017-06-13T02:29:18.547Z,0
2017-06-13T02:30:26.634Z,0
2017-06-13T02:31:34.719Z,0
2017-06-13T02:32:42.805Z,0
2017-06-13T02:33:50.892Z,0
2017-06-13T02:34:58.987Z,0
2017-06-13T02:36:07.143Z,0
2017-06-13T02:37:15.159Z,0
2017-06-13T02:38:23.246Z,0
2017-06-13T02:39:31.357Z,0
2017-06-13T02:40:39.416Z,0
2017-06-13T02:41:47.502Z,0
2017-06-13T02:42:55.589Z,0
2017-06-13T02:44:03.679Z,0
2017-06-13T02:45:11.764Z,0
2017-06-13T02:46:19.849Z,0
2017-06-13T02:47:27.936Z,0
2017-06-13T02:48:36.021Z,0
2017-06-13T02:49:44.109Z,0
2017-06-13T02:50:52.196Z,0
2017-06-13T02:52:00.284Z,0
2017-06-13T02:53:08.371Z,0
2017-06-13T02:54:16.458Z,0
2017-06-13T02:55:24.543Z,0
2017-06-13T02:56:32.630Z,0
2017-06-13T02:57:40.718Z,0
2017-06-13T02:58:48.802Z,0
2017-06-13T02:59:56.886Z,0
2017-06-13T03:01:04.972Z,0
2017-06-13T03:02:13.064Z,0
2017-06-13T03:03:21.146Z,0
2017-06-13T03:04:29.245Z,0
2017-06-13T03:05:37.347Z,0
2017-06-13T03:06:45.408Z,0
2017-06-13T03:07:53.490Z,0
2017-06-13T03:09:01.579Z,0
2017-06-13T03:10:09.666Z,0
2017-06-13T03:11:17.753Z,0
2017-06-13T03:12:25.837Z,0
2017-06-13T03:13:33.926Z,0
2017-06-13T03:14:42.018Z,0
2017-06-13T03:15:50.104Z,0
2017-06-13T03:16:58.189Z,0
2017-06-13T03:18:06.284Z,0
2017-06-13T03:19:14.361Z,0
2017-06-13T03:20:22.453Z,0
2017-06-13T03:21:30.544Z,0
2017-06-13T03:22:38.620Z,0
2017-06-13T03:23:46.705Z,0
2017-06-13T03:24:54.793Z,0
2017-06-13T03:26:02.879Z,0
2017-06-13T03:27:10.963Z,0
2017-06-13T03:28:19.050Z,0
2017-06-13T03:29:27.136Z,4
2017-06-13T03:30:35.245Z,4
2017-06-13T03:31:43.309Z,4
2017-06-13T03:32:51.402Z,0
2017-06-13T03:33:59.487Z,0
2017-06-13T03:35:07.574Z,0
2017-06-13T03:36:15.723Z,0
2017-06-13T03:37:23.753Z,0
2017-06-13T03:38:31.837Z,0
2017-06-13T03:39:39.924Z,0
2017-06-13T03:40:48.010Z,0
2017-06-13T03:41:56.097Z,4
2017-06-13T03:43:04.185Z,4
2017-06-13T03:44:12.390Z,4
2017-06-13T03:45:20.380Z,4
2017-06-13T03:46:28.443Z,0
2017-06-13T03:47:36.537Z,0
2017-06-13T03:48:44.618Z,0
2017-06-13T03:49:52.702Z,0
2017-06-13T03:51:00.788Z,0
2017-06-13T03:52:08.873Z,0
2017-06-13T03:53:16.958Z,0
2017-06-13T03:54:25.056Z,0
2017-06-13T03:55:33.130Z,0
2017-06-13T03:56:41.218Z,0
2017-06-13T03:57:49.303Z,4
2017-06-13T03:58:57.415Z,4
2017-06-13T04:00:05.475Z,4
2017-06-13T04:01:13.563Z,4
2017-06-13T04:02:21.649Z,4
2017-06-13T04:03:29.741Z,4
2017-06-13T04:04:37.819Z,0
2017-06-13T04:05:45.911Z,4
2017-06-13T04:06:53.998Z,4
2017-06-13T04:08:02.078Z,4
2017-06-13T04:09:10.163Z,4
2017-06-13T04:10:18.252Z,0
2017-06-13T04:11:26.345Z,4
2017-06-13T04:12:34.423Z,4
2017-06-13T04:13:42.508Z,4
2017-06-13T04:14:50.593Z,4
2017-06-13T04:15:58.680Z,4
2017-06-13T04:17:06.767Z,4
2017-06-13T04:18:14.853Z,4
2017-06-13T04:19:22.940Z,4
2017-06-13T04:20:31.303Z,4
2017-06-13T04:21:39.272Z,4
2017-06-13T04:22:47.200Z,8
2017-06-13T04:23:55.889Z,4
2017-06-13T04:25:03.370Z,4
2017-06-13T04:26:11.480Z,4
2017-06-13T04:27:19.541Z,8
2017-06-13T04:28:27.629Z,8
2017-06-13T04:29:35.723Z,4
2017-06-13T04:30:43.801Z,4
2017-06-13T04:31:51.893Z,4
2017-06-13T04:32:59.976Z,4
2017-06-13T04:34:08.060Z,4
2017-06-13T04:35:16.149Z,4
2017-06-13T04:36:24.230Z,4
2017-06-13T04:37:32.713Z,8
2017-06-13T04:38:40.412Z,8
2017-06-13T04:39:48.491Z,8
2017-06-13T04:40:56.577Z,8
2017-06-13T04:42:04.661Z,8
2017-06-13T04:43:12.748Z,8
2017-06-13T04:44:20.833Z,4
2017-06-13T04:45:28.920Z,4
2017-06-13T04:46:37.007Z,8
2017-06-13T04:47:45.095Z,8
2017-06-13T04:48:53.180Z,8
2017-06-13T04:50:01.319Z,4
2017-06-13T04:51:09.350Z,8
2017-06-13T04:52:17.437Z,4
2017-06-13T04:53:25.532Z,8
2017-06-13T04:54:33.611Z,8
2017-06-13T04:55:41.695Z,8
2017-06-13T04:56:49.789Z,8
2017-06-13T04:57:57.875Z,8
2017-06-13T04:59:05.963Z,8
2017-06-13T05:00:14.047Z,12
2017-06-13T05:01:22.132Z,8
2017-06-13T05:02:30.216Z,8
2017-06-13T05:03:38.305Z,8
2017-06-13T05:04:46.397Z,12
2017-06-13T05:05:54.476Z,12
2017-06-13T05:07:02.566Z,12
2017-06-13T05:08:10.650Z,12
2017-06-13T05:09:19.076Z,8
2017-06-13T05:10:26.826Z,8
2017-06-13T05:11:34.910Z,8
2017-06-13T05:12:42.992Z,8
2017-06-13T05:13:51.079Z,8
2017-06-13T05:14:59.167Z,8
2017-06-13T05:16:07.254Z,8
2017-06-13T05:17:15.355Z,8
2017-06-13T05:18:23.427Z,12
2017-06-13T05:19:31.516Z,12
2017-06-13T05:20:39.601Z,12
2017-06-13T05:21:47.685Z,8
2017-06-13T05:22:55.771Z,8
2017-06-13T05:24:03.864Z,8
2017-06-13T05:25:11.950Z,8
2017-06-13T05:26:20.044Z,12
2017-06-13T05:27:28.129Z,12
2017-06-13T05:28:36.216Z,12
2017-06-13T05:29:44.301Z,12
2017-06-13T05:30:52.397Z,8
2017-06-13T05:32:00.486Z,12
2017-06-13T05:33:08.561Z,12
2017-06-13T05:34:16.654Z,12
2017-06-13T05:35:24.735Z,12
2017-06-13T05:36:32.825Z,12
2017-06-13T05:37:40.907Z,8
2017-06-13T05:38:48.992Z,8
2017-06-13T05:39:57.079Z,12
2017-06-13T05:41:05.165Z,12
2017-06-13T05:42:13.374Z,12
2017-06-13T05:43:21.591Z,12
2017-06-13T05:44:29.428Z,12
2017-06-13T05:45:37.515Z,12
2017-06-13T05:46:45.600Z,12
2017-06-13T05:47:53.685Z,16
2017-06-13T05:49:01.773Z,12
2017-06-13T05:50:09.856Z,12
2017-06-13T05:51:17.943Z,12
2017-06-13T05:52:26.030Z,12
2017-06-13T05:53:34.118Z,12
2017-06-13T05:54:42.204Z,16
2017-06-13T05:55:50.292Z,12
2017-06-13T05:56:58.387Z,12
2017-06-13T05:58:06.488Z,12
2017-06-13T05:59:14.549Z,12
2017-06-13T06:00:22.637Z,16
2017-06-13T06:01:30.724Z,12
2017-06-13T06:02:38.810Z,12
2017-06-13T06:03:46.896Z,12
2017-06-13T06:04:54.984Z,16
2017-06-13T06:06:03.074Z,16
2017-06-13T06:07:11.157Z,12
2017-06-13T06:08:19.241Z,12
2017-06-13T06:09:27.351Z,12
2017-06-13T06:10:35.415Z,16
2017-06-13T06:11:43.505Z,16
2017-06-13T06:12:51.587Z,12
2017-06-13T06:13:59.675Z,12
2017-06-13T06:15:07.762Z,16
2017-06-13T06:16:15.850Z,16
2017-06-13T06:17:23.935Z,12
2017-06-13T06:18:32.018Z,16
2017-06-13T06:19:40.106Z,16
2017-06-13T06:20:48.193Z,16
2017-06-13T06:21:56.528Z,16
2017-06-13T06:23:04.620Z,12
2017-06-13T06:24:12.453Z,16
2017-06-13T06:25:20.559Z,16
2017-06-13T06:26:28.624Z,16
2017-06-13T06:27:36.722Z,16
2017-06-13T06:28:44.800Z,16
2017-06-13T06:29:52.885Z,16
2017-06-13T06:31:01.476Z,16
2017-06-13T06:32:09.056Z,16
2017-06-13T06:33:17.141Z,16
2017-06-13T06:34:25.246Z,16
2017-06-13T06:35:33.324Z,16
2017-06-13T06:36:41.411Z,16
2017-06-13T06:37:49.495Z,16
2017-06-13T06:38:57.582Z,16
2017-06-13T06:40:05.668Z,16
2017-06-13T06:41:13.757Z,16
2017-06-13T06:42:21.841Z,20
2017-06-13T06:43:29.926Z,16
2017-06-13T06:44:38.014Z,16
2017-06-13T06:45:46.102Z,16
2017-06-13T06:46:54.187Z,16
2017-06-13T06:48:02.282Z,20
2017-06-13T06:49:10.365Z,20
2017-06-13T06:50:18.447Z,28
2017-06-13T06:51:26.561Z,28
2017-06-13T06:52:34.626Z,32
2017-06-13T06:53:42.712Z,36
2017-06-13T06:54:50.797Z,36
2017-06-13T06:55:58.884Z,40
2017-06-13T06:57:06.970Z,40
2017-06-13T06:58:15.062Z,44
2017-06-13T06:59:23.144Z,44
2017-06-13T07:00:31.237Z,48
2017-06-13T07:01:39.324Z,48
2017-06-13T07:02:47.410Z,48
2017-06-13T07:03:55.496Z,48
2017-06-13T07:05:03.581Z,48
2017-06-13T07:06:11.676Z,48
2017-06-13T07:07:19.755Z,48
2017-06-13T07:08:27.841Z,48
2017-06-13T07:09:35.931Z,48
2017-06-13T07:10:44.019Z,48
2017-06-13T07:11:52.107Z,48
2017-06-13T07:13:00.216Z,48
2017-06-13T07:14:08.279Z,48
2017-06-13T07:15:16.366Z,52
2017-06-13T07:16:24.451Z,48
2017-06-13T07:17:32.537Z,52
2017-06-13T07:18:40.627Z,48
2017-06-13T07:19:48.713Z,52
2017-06-13T07:20:56.800Z,52
2017-06-13T07:22:04.888Z,52
2017-06-13T07:23:12.973Z,48
2017-06-13T07:24:21.059Z,52
2017-06-13T07:25:29.145Z,52
2017-06-13T07:26:37.239Z,52
2017-06-13T07:27:45.320Z,48
2017-06-13T07:28:53.530Z,48
2017-06-13T07:30:01.494Z,48
2017-06-13T07:31:09.581Z,48
2017-06-13T07:32:17.668Z,48
2017-06-13T07:33:25.750Z,44
2017-06-13T07:34:33.839Z,48
2017-06-13T07:35:41.926Z,48
2017-06-13T07:36:50.015Z,48
2017-06-13T07:37:58.100Z,48
2017-06-13T07:39:06.191Z,48
2017-06-13T07:40:14.276Z,48
2017-06-13T07:41:22.362Z,48
2017-06-13T07:42:30.454Z,48
2017-06-13T07:43:38.536Z,48
2017-06-13T07:44:46.622Z,48
2017-06-13T07:45:54.710Z,48
2017-06-13T07:47:02.799Z,48
2017-06-13T07:48:10.897Z,52
2017-06-13T07:49:18.974Z,48
2017-06-13T07:50:27.058Z,48
2017-06-13T07:51:35.146Z,48
2017-06-13T07:52:43.232Z,48
2017-06-13T07:53:51.344Z,48
2017-06-13T07:54:59.408Z,48
2017-06-13T07:56:07.560Z,48
2017-06-13T07:57:15.631Z,48
2017-06-13T07:58:23.670Z,48
2017-06-13T07:59:31.788Z,48
2017-06-13T08:00:39.848Z,48
2017-06-13T08:01:47.949Z,48
2017-06-13T08:02:56.022Z,48
2017-06-13T08:04:04.114Z,48
2017-06-13T08:05:12.197Z,48
2017-06-13T08:06:20.288Z,48
2017-06-13T08:07:28.387Z,48
2017-06-13T08:08:36.459Z,44
2017-06-13T08:09:44.546Z,48
2017-06-13T08:10:52.642Z,48
2017-06-13T08:12:00.725Z,44
2017-06-13T08:13:08.813Z,48
2017-06-13T08:14:16.903Z,44
2017-06-13T08:15:24.991Z,48
2017-06-13T08:16:33.078Z,48
2017-06-13T08:17:41.170Z,44
2017-06-13T08:18:49.256Z,44
2017-06-13T08:19:57.346Z,44
2017-06-13T08:21:05.431Z,48
2017-06-13T08:22:13.546Z,44
2017-06-13T08:23:21.608Z,44
2017-06-13T08:24:29.696Z,44
2017-06-13T08:25:37.783Z,44
2017-06-13T08:26:45.873Z,40
2017-06-13T08:27:53.958Z,44
2017-06-13T08:29:02.046Z,44
2017-06-13T08:30:10.131Z,44
2017-06-13T08:31:18.221Z,40
2017-06-13T08:32:26.310Z,40
2017-06-13T08:33:34.397Z,40
2017-06-13T08:34:42.486Z,40
2017-06-13T08:35:50.574Z,44
2017-06-13T08:36:58.674Z,40
2017-06-13T08:38:06.746Z,44
2017-06-13T08:39:14.835Z,40
2017-06-13T08:40:22.922Z,40
2017-06-13T08:41:31.010Z,40
2017-06-13T08:42:39.098Z,40
2017-06-13T08:43:47.187Z,40
2017-06-13T08:44:55.297Z,40
2017-06-13T08:46:03.365Z,36
2017-06-13T08:47:11.503Z,36
2017-06-13T08:48:19.559Z,40
2017-06-13T08:49:27.628Z,40
2017-06-13T08:50:35.709Z,36
2017-06-13T08:51:43.919Z,36
2017-06-13T08:52:51.885Z,40
2017-06-13T08:53:59.973Z,36
2017-06-13T08:55:08.061Z,36
2017-06-13T08:56:16.148Z,36
2017-06-13T08:57:24.237Z,32
2017-06-13T08:58:32.337Z,36
2017-06-13T08:59:40.412Z,32
2017-06-13T09:00:48.507Z,36
2017-06-13T09:01:56.598Z,36
2017-06-13T09:03:04.684Z,36
2017-06-13T09:04:12.770Z,32
2017-06-13T09:05:20.863Z,36
2017-06-13T09:06:28.952Z,32
2017-06-13T09:07:37.041Z,32
2017-06-13T09:08:45.127Z,32
2017-06-13T09:09:53.216Z,36
2017-06-13T09:11:01.360Z,32
2017-06-13T09:12:09.392Z,36
2017-06-13T09:13:17.486Z,36
2017-06-13T09:14:25.576Z,32
2017-06-13T09:15:33.660Z,36
2017-06-13T09:16:41.748Z,36
2017-06-13T09:17:49.837Z,36
2017-06-13T09:18:57.923Z,32
2017-06-13T09:20:06.012Z,36
2017-06-13T09:21:14.101Z,36
2017-06-13T09:22:22.214Z,36
2017-06-13T09:23:30.276Z,32
2017-06-13T09:24:38.364Z,36
2017-06-13T09:25:46.484Z,36
2017-06-13T09:26:54.538Z,32
2017-06-13T09:28:02.626Z,32
2017-06-13T09:29:10.714Z,32
2017-06-13T09:30:18.803Z,32
2017-06-13T09:31:26.893Z,32
2017-06-13T09:32:34.976Z,32
2017-06-13T09:33:43.063Z,32
2017-06-13T09:34:51.152Z,32
2017-06-13T09:35:59.240Z,32
2017-06-13T09:37:07.328Z,32
2017-06-13T09:38:15.431Z,36
2017-06-13T09:39:23.506Z,36
2017-06-13T09:40:31.622Z,32
2017-06-13T09:41:39.680Z,32
2017-06-13T09:42:47.765Z,36
2017-06-13T09:43:55.861Z,36
2017-06-13T09:45:03.949Z,36
2017-06-13T09:46:12.038Z,36
2017-06-13T09:47:20.124Z,32
2017-06-13T09:48:28.215Z,36
2017-06-13T09:49:36.315Z,32
2017-06-13T09:50:44.398Z,36
2017-06-13T09:51:52.507Z,36
2017-06-13T09:53:00.595Z,36
2017-06-13T09:54:08.658Z,36
2017-06-13T09:55:16.747Z,36
2017-06-13T09:56:24.835Z,32
2017-06-13T09:57:32.921Z,36
2017-06-13T09:58:41.010Z,32
2017-06-13T09:59:49.097Z,32
2017-06-13T10:00:57.187Z,32
2017-06-13T10:02:05.275Z,36
2017-06-13T10:03:13.365Z,32
2017-06-13T10:04:21.548Z,36
2017-06-13T10:05:29.540Z,36
2017-06-13T10:06:37.628Z,36
2017-06-13T10:07:45.722Z,36
2017-06-13T10:08:53.800Z,36
2017-06-13T10:10:01.889Z,36
2017-06-13T10:11:09.977Z,36
2017-06-13T10:12:18.066Z,36
2017-06-13T10:13:26.155Z,36
2017-06-13T10:14:34.266Z,36
2017-06-13T10:15:42.338Z,36
2017-06-13T10:16:50.417Z,36
2017-06-13T10:17:58.505Z,36
2017-06-13T10:19:06.593Z,36
2017-06-13T10:20:14.682Z,36
2017-06-13T10:21:22.790Z,36
2017-06-13T10:22:30.858Z,36
2017-06-13T10:23:38.944Z,36
2017-06-13T10:24:47.039Z,36
2017-06-13T10:25:55.119Z,36
2017-06-13T10:27:03.211Z,36
2017-06-13T10:28:11.306Z,36
2017-06-13T10:29:19.408Z,36
2017-06-13T10:30:27.496Z,36
2017-06-13T10:31:35.561Z,36
2017-06-13T10:32:43.651Z,36
2017-06-13T10:33:51.739Z,36
2017-06-13T10:34:59.827Z,36
2017-06-13T10:36:07.912Z,36
2017-06-13T10:37:16.002Z,36
2017-06-13T10:38:24.090Z,36
2017-06-13T10:39:32.178Z,36
2017-06-13T10:40:40.265Z,36
2017-06-13T10:41:48.353Z,36
2017-06-13T10:42:56.467Z,36
2017-06-13T10:44:04.531Z,36
2017-06-13T10:45:12.641Z,36
2017-06-13T10:46:20.706Z,36
2017-06-13T10:47:28.794Z,32
2017-06-13T10:48:36.884Z,36
2017-06-13T10:49:44.969Z,36
2017-06-13T10:50:53.057Z,36
2017-06-13T10:52:01.147Z,36
2017-06-13T10:53:09.235Z,36
2017-06-13T10:54:17.322Z,36
2017-06-13T10:55:25.412Z,36
2017-06-13T10:56:33.499Z,36
2017-06-13T10:57:41.586Z,36
2017-06-13T10:58:49.675Z,36
2017-06-13T10:59:57.762Z,36
2017-06-13T11:01:05.849Z,36
2017-06-13T11:02:13.938Z,36
2017-06-13T11:03:22.027Z,32
2017-06-13T11:04:30.119Z,36
2017-06-13T11:05:38.202Z,36
2017-06-13T11:06:46.292Z,36
2017-06-13T11:07:54.389Z,36
2017-06-13T11:09:02.466Z,36
2017-06-13T11:10:10.554Z,32
2017-06-13T11:11:18.643Z,36
2017-06-13T11:12:26.734Z,36
2017-06-13T11:13:34.821Z,36
2017-06-13T11:14:42.909Z,32
2017-06-13T11:15:51.005Z,32
2017-06-13T11:16:59.090Z,32
2017-06-13T11:18:07.180Z,36
2017-06-13T11:19:15.276Z,36
2017-06-13T11:20:23.354Z,36
2017-06-13T11:21:31.443Z,36
2017-06-13T11:22:39.542Z,32
2017-06-13T11:23:47.932Z,32
2017-06-13T11:24:55.707Z,36
2017-06-13T11:26:03.799Z,36
2017-06-13T11:27:11.884Z,36
2017-06-13T11:28:19.971Z,36
2017-06-13T11:29:28.090Z,36
2017-06-13T11:30:36.148Z,36
2017-06-13T11:31:44.238Z,36
2017-06-13T11:32:52.326Z,36
2017-06-13T11:34:00.438Z,36
2017-06-13T11:35:08.505Z,36
2017-06-13T11:36:16.592Z,36
2017-06-13T11:37:24.684Z,36
2017-06-13T11:38:32.773Z,36
2017-06-13T11:39:40.862Z,40
2017-06-13T11:40:48.948Z,36
2017-06-13T11:41:57.554Z,36
2017-06-13T11:43:05.140Z,28
2017-06-13T11:44:13.217Z,40
2017-06-13T11:45:21.313Z,32
2017-06-13T11:46:29.469Z,40
2017-06-13T11:47:37.530Z,24
2017-06-13T11:48:45.568Z,24
2017-06-13T11:49:53.790Z,48
2017-06-13T11:51:01.779Z,32
2017-06-13T11:52:09.843Z,36
2017-06-13T11:53:17.933Z,40
2017-06-13T11:54:26.027Z,40
2017-06-13T11:55:34.183Z,36
2017-06-13T11:56:42.262Z,36
2017-06-13T11:57:50.313Z,40
2017-06-13T11:58:58.781Z,44
2017-06-13T12:00:07.012Z,36
2017-06-13T12:01:14.624Z,44
2017-06-13T12:02:22.655Z,36
2017-06-13T12:03:31.039Z,24
2017-06-13T12:04:38.815Z,24
2017-06-13T12:05:46.942Z,20
2017-06-13T12:06:55.267Z,24
2017-06-13T12:08:03.657Z,24
2017-06-13T12:09:11.776Z,32
2017-06-13T12:10:19.496Z,40
2017-06-13T12:11:27.371Z,36
2017-06-13T12:12:35.433Z,40
2017-06-13T12:13:43.579Z,44
2017-06-13T12:14:51.611Z,44
2017-06-13T12:15:59.704Z,32
2017-06-13T12:17:07.793Z,40
2017-06-13T12:18:15.892Z,44
2017-06-13T12:19:24.019Z,40
2017-06-13T12:20:32.054Z,40
2017-06-13T12:21:40.142Z,32
2017-06-13T12:22:48.234Z,28
2017-06-13T12:23:56.322Z,20
2017-06-13T12:25:04.968Z,16
2017-06-13T12:26:12.648Z,16
2017-06-13T12:27:20.906Z,20
2017-06-13T12:28:28.891Z,20
2017-06-13T12:29:37.169Z,24
2017-06-13T12:30:45.001Z,20
2017-06-13T12:31:52.949Z,24
2017-06-13T12:33:01.105Z,28
2017-06-13T12:34:09.126Z,32
2017-06-13T12:35:17.238Z,28
2017-06-13T12:36:25.328Z,32
2017-06-13T12:37:33.391Z,28
2017-06-13T12:38:41.511Z,28
2017-06-13T12:39:49.566Z,12
2017-06-13T12:40:57.655Z,28
2017-06-13T12:42:05.744Z,32
2017-06-13T12:43:13.834Z,28
2017-06-13T12:44:21.929Z,32
2017-06-13T12:45:30.066Z,36
2017-06-13T12:46:38.098Z,36
2017-06-13T12:47:46.187Z,36
2017-06-13T12:48:54.274Z,36
2017-06-13T12:50:02.433Z,32
2017-06-13T12:51:10.458Z,36
2017-06-13T12:52:18.542Z,32
2017-06-13T12:53:26.642Z,32
2017-06-13T12:54:34.729Z,36
2017-06-13T12:55:42.808Z,32
2017-06-13T12:56:50.897Z,28
2017-06-13T12:57:58.984Z,32
2017-06-13T12:59:07.073Z,28
2017-06-13T13:00:15.159Z,24
2017-06-13T13:01:23.249Z,24
2017-06-13T13:02:31.366Z,32
2017-06-13T13:03:39.427Z,28
2017-06-13T13:04:47.518Z,28
2017-06-13T13:05:55.662Z,24
2017-06-13T13:07:03.765Z,28
2017-06-13T13:08:11.782Z,24
2017-06-13T13:09:19.870Z,24
2017-06-13T13:10:27.961Z,24
2017-06-13T13:11:36.045Z,24
2017-06-13T13:12:44.143Z,24
2017-06-13T13:13:52.228Z,20
2017-06-13T13:15:00.325Z,24
2017-06-13T13:16:08.412Z,20
2017-06-13T13:17:16.501Z,24
2017-06-13T13:18:24.590Z,20
2017-06-13T13:19:32.679Z,24
2017-06-13T13:20:40.766Z,20
2017-06-13T13:21:48.855Z,20
2017-06-13T13:22:56.945Z,20
2017-06-13T13:24:05.131Z,24
2017-06-13T13:25:13.121Z,24
2017-06-13T13:26:21.210Z,20
2017-06-13T13:27:29.300Z,20
2017-06-13T13:28:37.392Z,20
2017-06-13T13:29:45.476Z,24
2017-06-13T13:30:53.571Z,20
2017-06-13T13:32:01.673Z,20
2017-06-13T13:33:09.750Z,24
2017-06-13T13:34:17.834Z,20
2017-06-13T13:35:25.923Z,20
2017-06-13T13:36:34.011Z,20
2017-06-13T13:37:42.103Z,20
2017-06-13T13:38:50.190Z,20
2017-06-13T13:39:58.287Z,20
2017-06-13T13:41:06.402Z,20
2017-06-13T13:42:14.457Z,24
2017-06-13T13:43:22.553Z,20
2017-06-13T13:44:30.632Z,20
2017-06-13T13:45:38.721Z,20
2017-06-13T13:46:46.808Z,20
2017-06-13T13:47:54.896Z,20
2017-06-13T13:49:02.986Z,24
2017-06-13T13:50:11.074Z,24
2017-06-13T13:51:19.163Z,24
2017-06-13T13:52:27.251Z,20
2017-06-13T13:53:35.349Z,24
2017-06-13T13:54:43.428Z,20
2017-06-13T13:55:51.515Z,20
2017-06-13T13:56:59.603Z,20
2017-06-13T13:58:07.733Z,20
2017-06-13T13:59:15.783Z,24
2017-06-13T14:00:23.870Z,20
2017-06-13T14:01:31.962Z,24
2017-06-13T14:02:40.049Z,24
2017-06-13T14:03:48.145Z,20
2017-06-13T14:04:56.229Z,20
2017-06-13T14:06:04.340Z,20
2017-06-13T14:07:12.403Z,20
2017-06-13T14:08:20.495Z,20
2017-06-13T14:09:28.583Z,24
2017-06-13T14:10:36.670Z,16
2017-06-13T14:11:44.757Z,20
2017-06-13T14:12:52.845Z,20
2017-06-13T14:14:00.941Z,20
2017-06-13T14:15:09.089Z,20
2017-06-13T14:16:17.112Z,20
2017-06-13T14:17:25.201Z,16
2017-06-13T14:18:33.298Z,20
2017-06-13T14:19:41.389Z,20
2017-06-13T14:20:49.474Z,20
2017-06-13T14:21:57.810Z,16
2017-06-13T14:23:05.650Z,16
2017-06-13T14:24:13.738Z,16
2017-06-13T14:25:21.826Z,16
2017-06-13T14:26:29.921Z,16
2017-06-13T14:27:38.012Z,16
2017-06-13T14:28:46.098Z,16
2017-06-13T14:29:54.310Z,20
2017-06-13T14:31:02.278Z,20
2017-06-13T14:32:10.405Z,20
2017-06-13T14:33:18.455Z,16
2017-06-13T14:34:26.542Z,16
2017-06-13T14:35:34.632Z,20
2017-06-13T14:36:42.721Z,16
2017-06-13T14:37:50.809Z,16
2017-06-13T14:38:58.904Z,20
2017-06-13T14:40:07.010Z,20
2017-06-13T14:41:15.074Z,16
2017-06-13T14:42:23.164Z,16
2017-06-13T14:43:31.253Z,16
2017-06-13T14:44:39.353Z,16
2017-06-13T14:45:47.430Z,20
2017-06-13T14:46:55.575Z,16
2017-06-13T14:48:03.608Z,16
2017-06-13T14:49:11.757Z,20
2017-06-13T14:50:19.783Z,20
2017-06-13T14:51:27.873Z,16
2017-06-13T14:52:35.961Z,16
2017-06-13T14:53:44.051Z,16
2017-06-13T14:54:52.170Z,16
2017-06-13T14:56:00.230Z,16
2017-06-13T14:57:08.326Z,16
2017-06-13T14:58:16.406Z,16
2017-06-13T14:59:24.554Z,16
2017-06-13T15:00:32.942Z,20
2017-06-13T15:01:40.672Z,16
2017-06-13T15:02:48.788Z,20
2017-06-13T15:03:58.167Z,16
2017-06-13T15:05:06.353Z,20
2017-06-13T15:06:13.554Z,20
2017-06-13T15:07:23.084Z,20
2017-06-13T15:08:29.206Z,16
2017-06-13T15:09:37.415Z,16
2017-06-13T15:10:45.713Z,16
2017-06-13T15:11:53.471Z,16
2017-06-13T15:13:01.561Z,16
2017-06-13T15:14:09.649Z,16
2017-06-13T15:15:17.738Z,16
2017-06-13T15:16:25.827Z,16
2017-06-13T15:17:33.917Z,20
2017-06-13T15:18:42.005Z,16
2017-06-13T15:19:50.093Z,16
2017-06-13T15:20:58.181Z,16
2017-06-13T15:22:06.292Z,16
2017-06-13T15:23:14.388Z,20
2017-06-13T15:24:22.448Z,16
2017-06-13T15:25:30.535Z,16
2017-06-13T15:26:38.728Z,16
2017-06-13T15:27:47.405Z,16
2017-06-13T15:28:54.800Z,16
2017-06-13T15:30:04.499Z,16
2017-06-13T15:31:11.743Z,16
2017-06-13T15:32:19.142Z,20
2017-06-13T15:33:27.879Z,16
2017-06-13T15:34:35.524Z,16
2017-06-13T15:35:43.834Z,20
2017-06-13T15:36:51.429Z,16
2017-06-13T15:37:59.519Z,20
2017-06-13T15:39:07.607Z,12
2017-06-13T15:40:15.690Z,20
2017-06-13T15:41:23.782Z,16
2017-06-13T15:42:31.878Z,20
2017-06-13T15:43:39.959Z,16
2017-06-13T15:44:48.048Z,16
2017-06-13T15:45:56.148Z,16
2017-06-13T15:47:04.245Z,16
2017-06-13T15:48:12.317Z,16
2017-06-13T15:49:20.403Z,20
2017-06-13T15:50:28.511Z,20
2017-06-13T15:51:36.579Z,12
2017-06-13T15:52:44.667Z,16
2017-06-13T15:53:52.756Z,16
2017-06-13T15:55:00.866Z,12
2017-06-13T15:56:08.936Z,16
2017-06-13T15:57:17.025Z,16
2017-06-13T15:58:25.114Z,16
2017-06-13T15:59:33.202Z,16
2017-06-13T16:00:41.292Z,16
2017-06-13T16:01:49.382Z,16
2017-06-13T16:02:57.469Z,16
2017-06-13T16:04:05.559Z,16
2017-06-13T16:05:13.651Z,20
2017-06-13T16:06:21.737Z,16
2017-06-13T16:07:29.824Z,16
2017-06-13T16:08:37.915Z,16
2017-06-13T16:09:46.002Z,16
2017-06-13T16:10:54.091Z,12
2017-06-13T16:12:02.181Z,16
2017-06-13T16:13:10.267Z,12
2017-06-13T16:14:18.357Z,12
2017-06-13T16:15:26.447Z,16
2017-06-13T16:16:34.542Z,12
2017-06-13T16:17:42.624Z,12
2017-06-13T16:18:50.713Z,12
2017-06-13T16:19:58.804Z,12
2017-06-13T16:21:06.890Z,12
2017-06-13T16:22:14.979Z,12